createdAt,value
2022-10-30T00:01:15.150Z,65.20
2022-10-30T00:03:42.099Z,65.57
2022-10-30T00:06:08.836Z,65.01
2022-10-30T00:08:35.621Z,64.23
2022-10-30T00:11:09.435Z,64.40
2022-10-30T00:13:36.309Z,64.63
2022-10-30T00:16:04.402Z,64.66
2022-10-30T00:18:31.135Z,64.36
2022-10-30T00:20:57.854Z,64.39
2022-10-30T00:23:24.804Z,64.56
2022-10-30T00:25:51.516Z,64.69
2022-10-30T00:28:19.210Z,64.73
2022-10-30T00:30:46.181Z,65.40
2022-10-30T00:33:12.854Z,65.02
2022-10-30T00:35:39.761Z,65.14
2022-10-30T00:38:06.825Z,64.92
2022-10-30T00:40:33.517Z,65.33
2022-10-30T00:43:00.158Z,65.34
2022-10-30T00:45:28.023Z,65.87
2022-10-30T00:47:57.886Z,65.31
2022-10-30T00:53:03.501Z,65.25
2022-10-30T00:55:37.785Z,65.59
2022-10-30T00:58:07.760Z,65.06
2022-10-30T01:00:34.429Z,64.89
2022-10-30T01:03:01.472Z,65.49
2022-10-30T01:05:28.987Z,64.56
2022-10-30T01:07:56.029Z,65.09
2022-10-30T01:10:22.979Z,64.94
2022-10-30T01:12:49.947Z,64.64
2022-10-30T01:15:16.723Z,64.49
2022-10-30T01:17:46.551Z,64.68
2022-10-30T01:20:17.841Z,65.61
2022-10-30T01:23:02.902Z,65.52
2022-10-30T01:25:49.272Z,65.74
2022-10-30T01:28:23.287Z,65.04
2022-10-30T01:31:00.701Z,65.14
2022-10-30T01:33:45.876Z,66.27
2022-10-30T01:36:15.928Z,67.18
2022-10-30T01:38:44.849Z,66.40
2022-10-30T01:41:11.527Z,66.45
2022-10-30T01:43:38.482Z,66.98
2022-10-30T01:46:12.290Z,65.91
2022-10-30T01:49:00.618Z,65.53
2022-10-30T01:51:33.504Z,65.57
2022-10-30T01:54:04.243Z,64.89
2022-10-30T01:56:44.782Z,65.23
2022-10-30T01:59:30.198Z,64.58
2022-10-30T02:01:57.335Z,65.29
2022-10-30T02:04:24.388Z,64.61
2022-10-30T02:06:51.607Z,64.98
2022-10-30T02:09:18.398Z,65.14
2022-10-30T02:11:46.096Z,65.05
2022-10-30T02:14:12.842Z,65.09
2022-10-30T02:16:42.749Z,65.37
2022-10-30T02:19:09.912Z,65.06
2022-10-30T02:21:36.732Z,65.13
2022-10-30T02:24:03.487Z,64.26
2022-10-30T02:26:30.512Z,65.17
2022-10-30T02:28:58.309Z,65.07
2022-10-30T02:31:25.069Z,64.70
2022-10-30T02:33:52.049Z,64.89
2022-10-30T02:36:19.756Z,64.84
2022-10-30T02:38:47.227Z,64.73
2022-10-30T02:41:14.658Z,64.58
2022-10-30T02:43:41.690Z,64.73
2022-10-30T02:46:09.852Z,64.57
2022-10-30T02:48:37.076Z,64.51
2022-10-30T02:51:04.124Z,64.21
2022-10-30T02:53:30.804Z,64.20
2022-10-30T02:56:03.405Z,64.19
2022-10-30T02:58:30.267Z,64.50
2022-10-30T03:00:57.274Z,64.68
2022-10-30T03:03:24.315Z,64.28
2022-10-30T03:05:51.144Z,64.68
2022-10-30T03:08:18.087Z,64.96
2022-10-30T03:10:44.832Z,64.38
2022-10-30T03:13:11.505Z,64.54
2022-10-30T03:15:38.433Z,64.78
2022-10-30T03:18:05.673Z,64.86
2022-10-30T03:20:32.411Z,64.74
2022-10-30T03:22:59.394Z,64.91
2022-10-30T03:25:26.086Z,64.79
2022-10-30T03:27:53.663Z,64.59
2022-10-30T03:30:20.618Z,64.51
2022-10-30T03:32:47.579Z,64.25
2022-10-30T03:35:14.313Z,64.33
2022-10-30T03:37:41.422Z,64.78
2022-10-30T03:40:08.506Z,64.65
2022-10-30T03:42:39.388Z,64.71
2022-10-30T03:45:06.687Z,65.07
2022-10-30T03:47:33.339Z,64.63
2022-10-30T03:50:00.090Z,64.46
2022-10-30T03:52:27.327Z,64.52
2022-10-30T03:54:54.017Z,64.64
2022-10-30T03:57:21.321Z,64.98
2022-10-30T03:59:48.802Z,64.50
2022-10-30T04:02:16.774Z,64.50
2022-10-30T04:04:44.053Z,64.73
2022-10-30T04:07:10.914Z,64.37
2022-10-30T04:09:37.732Z,64.27
2022-10-30T04:12:04.924Z,64.49
2022-10-30T04:14:31.666Z,64.39
2022-10-30T04:16:58.709Z,64.35
2022-10-30T04:19:25.804Z,64.61
2022-10-30T04:21:52.893Z,64.07
2022-10-30T04:24:19.668Z,63.97
2022-10-30T04:26:46.967Z,64.06
2022-10-30T04:29:13.665Z,63.57
2022-10-30T04:31:40.454Z,64.03
2022-10-30T04:34:07.615Z,63.85
2022-10-30T04:36:34.323Z,63.31
2022-10-30T04:39:02.393Z,63.82
2022-10-30T04:41:29.688Z,63.40
2022-10-30T04:43:57.025Z,63.72
2022-10-30T04:46:23.783Z,63.60
2022-10-30T04:48:57.390Z,63.67
2022-10-30T04:51:24.154Z,63.37
2022-10-30T04:53:51.275Z,63.46
2022-10-30T04:56:18.582Z,63.73
2022-10-30T04:58:45.386Z,63.52
2022-10-30T05:01:12.503Z,63.62
2022-10-30T05:03:39.229Z,63.40
2022-10-30T05:06:07.605Z,63.39
2022-10-30T05:08:35.942Z,63.32
2022-10-30T05:11:04.115Z,63.22
2022-10-30T05:13:30.932Z,62.82
2022-10-30T05:15:57.854Z,62.61
2022-10-30T05:18:24.570Z,62.74
2022-10-30T05:20:51.288Z,62.93
2022-10-30T05:23:18.341Z,62.78
2022-10-30T05:25:45.103Z,62.70
2022-10-30T05:28:12.030Z,63.01
2022-10-30T05:30:40.356Z,62.97
2022-10-30T05:33:09.294Z,63.01
2022-10-30T05:35:36.166Z,63.01
2022-10-30T05:38:04.217Z,62.96
2022-10-30T05:40:31.027Z,63.01
2022-10-30T05:42:58.576Z,63.16
2022-10-30T05:45:25.964Z,63.05
2022-10-30T05:48:00.253Z,63.04
2022-10-30T05:50:30.235Z,62.93
2022-10-30T05:53:09.506Z,63.31
2022-10-30T05:55:37.669Z,63.54
2022-10-30T05:58:05.664Z,63.44
2022-10-30T06:00:34.147Z,63.06
2022-10-30T06:03:07.834Z,63.58
2022-10-30T06:05:35.250Z,62.78
2022-10-30T06:08:02.499Z,63.42
2022-10-30T06:10:29.224Z,63.30
2022-10-30T06:12:57.010Z,63.41
2022-10-30T06:15:25.537Z,63.30
2022-10-30T06:17:52.529Z,63.14
2022-10-30T06:20:19.999Z,62.46
2022-10-30T06:22:59.302Z,62.76
2022-10-30T06:25:26.881Z,63.18
2022-10-30T06:27:54.481Z,62.98
2022-10-30T06:30:21.730Z,62.25
2022-10-30T06:32:50.730Z,62.72
2022-10-30T06:35:17.980Z,62.19
2022-10-30T06:37:47.794Z,62.43
2022-10-30T06:40:15.723Z,62.57
2022-10-30T06:42:47.804Z,62.45
2022-10-30T06:45:16.586Z,62.41
2022-10-30T06:47:44.014Z,62.91
2022-10-30T06:50:11.959Z,63.15
2022-10-30T06:52:38.759Z,62.95
2022-10-30T06:55:08.274Z,62.41
2022-10-30T06:57:35.952Z,62.39
2022-10-30T07:00:03.669Z,62.52
2022-10-30T07:02:30.841Z,62.49
2022-10-30T07:04:57.785Z,62.45
2022-10-30T07:07:24.685Z,62.47
2022-10-30T07:09:52.040Z,62.53
2022-10-30T07:12:19.425Z,62.89
2022-10-30T07:14:46.866Z,62.17
2022-10-30T07:17:14.031Z,62.34
2022-10-30T07:19:42.103Z,62.37
2022-10-30T07:22:08.826Z,62.64
2022-10-30T07:24:37.587Z,62.26
2022-10-30T07:27:04.311Z,62.23
2022-10-30T07:29:31.191Z,62.35
2022-10-30T07:32:03.042Z,62.55
2022-10-30T07:34:30.289Z,62.37
2022-10-30T07:36:57.098Z,61.69
2022-10-30T07:39:24.115Z,61.67
2022-10-30T07:41:50.998Z,61.99
2022-10-30T07:44:20.911Z,61.87
2022-10-30T07:46:49.003Z,61.95
2022-10-30T07:49:17.136Z,61.92
2022-10-30T07:51:46.586Z,61.77
2022-10-30T07:54:13.988Z,61.58
2022-10-30T07:56:40.668Z,62.18
2022-10-30T07:59:09.278Z,61.95
2022-10-30T08:01:36.780Z,61.78
2022-10-30T08:04:04.918Z,62.67
2022-10-30T08:06:31.673Z,61.99
2022-10-30T08:08:59.672Z,62.49
2022-10-30T08:11:26.707Z,62.61
2022-10-30T08:13:53.640Z,62.15
2022-10-30T08:16:20.457Z,61.68
2022-10-30T08:18:49.093Z,61.72
2022-10-30T08:21:17.569Z,61.49
2022-10-30T08:23:45.350Z,61.84
2022-10-30T08:26:12.559Z,61.56
2022-10-30T08:28:39.230Z,61.30
2022-10-30T08:31:08.648Z,61.50
2022-10-30T08:33:42.467Z,60.90
2022-10-30T08:36:11.802Z,61.03
2022-10-30T08:38:38.833Z,62.25
2022-10-30T08:41:05.741Z,61.87
2022-10-30T08:43:32.809Z,61.48
2022-10-30T08:46:00.238Z,61.09
2022-10-30T08:48:26.983Z,61.10
2022-10-30T08:50:57.708Z,60.39
2022-10-30T08:53:25.229Z,60.70
2022-10-30T08:55:52.915Z,61.23
2022-10-30T08:58:20.311Z,61.10
2022-10-30T09:00:47.384Z,61.25
2022-10-30T09:03:32.331Z,60.84
2022-10-30T09:06:01.766Z,62.01
2022-10-30T09:08:29.363Z,60.64
2022-10-30T09:10:56.719Z,60.39
2022-10-30T09:13:24.790Z,60.96
2022-10-30T09:15:52.434Z,61.30
2022-10-30T09:18:19.430Z,61.26
2022-10-30T09:20:48.650Z,61.75
2022-10-30T09:23:15.472Z,61.45
2022-10-30T09:25:44.778Z,61.47
2022-10-30T09:28:12.127Z,61.07
2022-10-30T09:30:41.391Z,61.11
2022-10-30T09:33:09.766Z,60.72
2022-10-30T09:35:37.250Z,60.50
2022-10-30T09:38:04.173Z,60.08
2022-10-30T09:40:40.367Z,60.94
2022-10-30T09:43:15.449Z,61.15
2022-10-30T09:45:50.356Z,61.24
2022-10-30T09:48:17.312Z,61.22
2022-10-30T09:50:56.009Z,60.06
2022-10-30T09:53:26.140Z,59.95
2022-10-30T09:56:09.393Z,62.28
2022-10-30T09:58:39.363Z,63.61
2022-10-30T10:01:10.504Z,64.07
2022-10-30T10:03:56.405Z,63.24
2022-10-30T10:06:25.190Z,66.23
2022-10-30T10:08:59.391Z,63.44
2022-10-30T10:11:48.730Z,61.74
2022-10-30T10:14:18.671Z,62.00
2022-10-30T10:16:45.782Z,61.85
2022-10-30T10:19:31.376Z,61.60
2022-10-30T10:21:59.288Z,61.48
2022-10-30T10:24:26.706Z,60.66
2022-10-30T10:26:53.342Z,61.23
2022-10-30T10:29:49.749Z,61.95
2022-10-30T10:32:30.510Z,61.00
2022-10-30T10:35:03.057Z,61.19
2022-10-30T10:37:32.759Z,60.08
2022-10-30T10:39:59.666Z,63.08
2022-10-30T10:42:32.515Z,62.99
2022-10-30T10:44:59.438Z,62.07
2022-10-30T10:47:32.293Z,62.31
2022-10-30T10:50:02.050Z,61.18
2022-10-30T10:52:31.533Z,61.43
2022-10-30T10:54:59.439Z,61.54
2022-10-30T10:57:26.479Z,60.35
2022-10-30T10:59:54.760Z,59.72
2022-10-30T11:02:24.619Z,60.12
2022-10-30T11:04:52.528Z,60.21
2022-10-30T11:07:21.006Z,59.94
2022-10-30T11:09:48.374Z,60.42
2022-10-30T11:12:15.288Z,62.03
2022-10-30T11:14:41.945Z,60.70
2022-10-30T11:17:15.074Z,64.67
2022-10-30T11:19:42.024Z,63.99
2022-10-30T11:22:12.735Z,63.08
2022-10-30T11:24:39.470Z,60.81
2022-10-30T11:27:18.342Z,62.89
2022-10-30T11:29:52.145Z,61.84
2022-10-30T11:32:22.544Z,61.23
2022-10-30T11:35:07.656Z,61.54
2022-10-30T11:37:35.567Z,60.26
2022-10-30T11:40:22.563Z,60.61
2022-10-30T11:42:55.196Z,60.36
2022-10-30T11:45:40.795Z,59.29
2022-10-30T11:48:18.272Z,60.23
2022-10-30T11:50:49.223Z,60.88
2022-10-30T11:53:18.771Z,61.05
2022-10-30T11:55:46.072Z,59.85
2022-10-30T11:58:20.981Z,59.74
2022-10-30T12:00:47.905Z,59.78
2022-10-30T12:03:26.639Z,60.25
2022-10-30T12:05:53.294Z,61.63
2022-10-30T12:08:21.181Z,63.00
2022-10-30T12:10:59.313Z,61.36
2022-10-30T12:13:26.370Z,60.74
2022-10-30T12:16:11.656Z,59.62
2022-10-30T12:18:38.929Z,61.47
2022-10-30T12:21:05.639Z,63.10
2022-10-30T12:23:32.379Z,62.08
2022-10-30T12:26:00.336Z,62.50
2022-10-30T12:28:27.549Z,60.07
2022-10-30T12:30:55.588Z,59.97
2022-10-30T12:33:22.512Z,59.48
2022-10-30T12:35:56.082Z,60.74
2022-10-30T12:38:40.277Z,61.56
2022-10-30T12:41:25.860Z,61.37
2022-10-30T12:44:08.057Z,60.33
2022-10-30T12:46:40.473Z,59.24
2022-10-30T12:49:27.679Z,58.73
2022-10-30T12:51:58.819Z,57.78
2022-10-30T12:54:44.616Z,60.15
2022-10-30T12:57:12.938Z,58.46
2022-10-30T12:59:46.818Z,60.24
2022-10-30T13:02:32.365Z,60.01
2022-10-30T13:05:04.492Z,59.58
2022-10-30T13:08:03.895Z,58.75
2022-10-30T13:10:43.623Z,58.07
2022-10-30T13:13:11.593Z,58.75
2022-10-30T13:15:41.630Z,58.83
2022-10-30T13:18:16.729Z,57.84
2022-10-30T13:20:46.901Z,61.38
2022-10-30T13:23:21.433Z,60.75
2022-10-30T13:25:54.316Z,60.08
2022-10-30T13:28:26.046Z,61.80
2022-10-30T13:31:07.531Z,64.73
2022-10-30T13:33:53.372Z,62.16
2022-10-30T13:36:26.061Z,61.60
2022-10-30T13:38:56.799Z,64.04
2022-10-30T13:41:44.439Z,63.29
2022-10-30T13:44:29.845Z,61.75
2022-10-30T13:46:57.800Z,61.41
2022-10-30T13:49:44.797Z,60.66
2022-10-30T13:52:16.187Z,60.83
2022-10-30T13:54:46.519Z,61.09
2022-10-30T13:57:13.799Z,63.59
2022-10-30T14:00:01.460Z,62.76
2022-10-30T14:02:34.832Z,62.97
2022-10-30T14:05:13.163Z,62.41
2022-10-30T14:07:46.042Z,63.40
2022-10-30T14:10:20.971Z,64.01
2022-10-30T14:12:57.448Z,62.37
2022-10-30T14:15:26.697Z,63.01
2022-10-30T14:18:13.018Z,61.62
2022-10-30T14:21:00.350Z,61.14
2022-10-30T14:23:39.095Z,62.24
2022-10-30T14:26:06.108Z,61.30
2022-10-30T14:28:36.595Z,60.36
2022-10-30T14:31:04.296Z,59.94
2022-10-30T14:33:40.564Z,60.31
2022-10-30T14:36:26.460Z,60.13
2022-10-30T14:38:54.719Z,60.52
2022-10-30T14:41:27.272Z,60.98
2022-10-30T14:44:19.585Z,60.32
2022-10-30T14:46:46.668Z,60.18
2022-10-30T14:49:16.628Z,60.04
2022-10-30T14:51:51.747Z,60.70
2022-10-30T14:54:27.386Z,59.84
2022-10-30T14:56:54.292Z,59.96
2022-10-30T14:59:26.360Z,61.93
2022-10-30T15:01:53.146Z,62.44
2022-10-30T15:04:21.902Z,63.50
2022-10-30T15:07:09.003Z,64.70
2022-10-30T15:09:54.452Z,64.64
2022-10-30T15:12:34.719Z,65.49
2022-10-30T15:15:02.679Z,63.36
2022-10-30T15:17:42.407Z,62.60
2022-10-30T15:20:19.186Z,62.53
2022-10-30T15:22:47.728Z,62.91
2022-10-30T15:25:16.228Z,62.45
2022-10-30T15:27:42.941Z,62.08
2022-10-30T15:30:15.696Z,62.55
2022-10-30T15:32:42.402Z,62.49
2022-10-30T15:35:19.620Z,63.70
2022-10-30T15:38:02.627Z,62.66
2022-10-30T15:40:30.423Z,62.51
2022-10-30T15:42:58.430Z,61.93
2022-10-30T15:45:35.201Z,62.00
2022-10-30T15:48:05.530Z,62.89
2022-10-30T15:50:33.483Z,62.04
2022-10-30T15:53:00.347Z,61.69
2022-10-30T15:55:28.992Z,62.28
2022-10-30T15:58:13.037Z,62.58
2022-10-30T16:00:40.782Z,62.56
2022-10-30T16:03:15.899Z,61.88
2022-10-30T16:05:42.949Z,61.46
2022-10-30T16:08:12.162Z,61.95
2022-10-30T16:10:38.851Z,61.62
2022-10-30T16:13:05.517Z,61.96
2022-10-30T16:15:38.283Z,62.51
2022-10-30T16:18:10.824Z,62.21
2022-10-30T16:20:39.492Z,61.84
2022-10-30T16:23:06.420Z,62.26
2022-10-30T16:25:37.271Z,62.29
2022-10-30T16:28:04.932Z,64.52
2022-10-30T16:30:32.505Z,65.26
2022-10-30T16:32:59.732Z,64.09
2022-10-30T16:35:27.225Z,63.49
2022-10-30T16:37:55.084Z,65.79
2022-10-30T16:40:25.934Z,64.47
2022-10-30T16:43:00.256Z,63.92
2022-10-30T16:45:34.184Z,63.86
2022-10-30T16:48:08.349Z,63.63
2022-10-30T16:50:36.314Z,64.36
2022-10-30T16:53:07.755Z,64.87
2022-10-30T16:55:36.015Z,63.11
2022-10-30T16:58:03.047Z,64.20
2022-10-30T17:00:34.027Z,64.09
2022-10-30T17:03:07.062Z,64.03
2022-10-30T17:05:34.554Z,63.93
2022-10-30T17:08:02.328Z,64.28
2022-10-30T17:10:35.756Z,63.27
2022-10-30T17:13:21.098Z,63.16
2022-10-30T17:15:51.982Z,63.49
2022-10-30T17:18:21.005Z,64.23
2022-10-30T17:21:02.327Z,63.83
2022-10-30T17:23:29.467Z,64.32
2022-10-30T17:25:56.891Z,63.88
2022-10-30T17:28:27.740Z,64.31
2022-10-30T17:30:54.923Z,65.32
2022-10-30T17:33:27.165Z,63.80
2022-10-30T17:38:26.295Z,65.52
2022-10-30T17:40:53.719Z,66.14
2022-10-30T17:43:20.876Z,66.55
2022-10-30T17:45:50.406Z,65.88
2022-10-30T17:48:17.761Z,65.88
2022-10-30T17:50:44.929Z,65.91
2022-10-30T17:53:24.594Z,64.33
2022-10-30T17:55:56.963Z,65.62
2022-10-30T17:58:24.557Z,64.74
2022-10-30T18:00:51.769Z,64.08
2022-10-30T18:03:19.097Z,64.55
2022-10-30T18:05:46.668Z,63.69
2022-10-30T18:08:14.469Z,63.44
2022-10-30T18:10:44.737Z,63.45
2022-10-30T18:13:15.546Z,63.40
2022-10-30T18:15:43.855Z,64.01
2022-10-30T18:18:10.912Z,64.58
2022-10-30T18:20:39.200Z,63.68
2022-10-30T18:23:12.775Z,63.28
2022-10-30T18:25:47.527Z,63.30
2022-10-30T18:28:15.053Z,63.56
2022-10-30T18:30:45.091Z,67.65
2022-10-30T18:33:12.226Z,65.09
2022-10-30T18:35:39.850Z,63.58
2022-10-30T18:38:07.117Z,63.36
2022-10-30T18:40:34.395Z,63.83
2022-10-30T18:43:04.778Z,64.39
2022-10-30T18:45:37.216Z,63.91
2022-10-30T18:48:04.446Z,64.54
2022-10-30T18:50:31.698Z,63.42
2022-10-30T18:52:59.159Z,63.54
2022-10-30T18:55:32.730Z,63.31
2022-10-30T18:58:01.553Z,63.24
2022-10-30T19:00:39.710Z,62.72
2022-10-30T19:03:17.860Z,63.20
2022-10-30T19:05:48.652Z,62.79
2022-10-30T19:08:15.691Z,63.50
2022-10-30T19:10:44.747Z,62.72
2022-10-30T19:13:17.190Z,62.34
2022-10-30T19:15:45.316Z,62.59
2022-10-30T19:18:12.724Z,62.62
2022-10-30T19:20:58.949Z,63.25
2022-10-30T19:23:27.949Z,62.00
2022-10-30T19:25:54.850Z,62.17
2022-10-30T19:28:22.036Z,63.35
2022-10-30T19:30:54.967Z,63.13
2022-10-30T19:33:22.741Z,63.28
2022-10-30T19:35:55.625Z,64.54
2022-10-30T19:38:23.020Z,64.13
2022-10-30T19:40:50.843Z,63.66
2022-10-30T19:43:17.869Z,63.24
2022-10-30T19:45:45.239Z,62.67
2022-10-30T19:48:40.639Z,62.58
2022-10-30T19:51:11.932Z,62.68
2022-10-30T19:53:39.915Z,62.60
2022-10-30T19:56:07.521Z,62.78
2022-10-30T19:58:34.799Z,62.64
2022-10-30T20:01:03.299Z,62.91
2022-10-30T20:03:30.825Z,63.09
2022-10-30T20:05:57.880Z,62.74
2022-10-30T20:08:26.241Z,64.16
2022-10-30T20:10:54.624Z,63.86
2022-10-30T20:13:23.641Z,62.86
2022-10-30T20:15:50.866Z,62.31
2022-10-30T20:18:19.213Z,63.19
2022-10-30T20:20:50.569Z,64.70
2022-10-30T20:23:18.307Z,64.05
2022-10-30T20:25:45.403Z,63.95
2022-10-30T20:28:16.094Z,63.90
2022-10-30T20:30:45.572Z,64.26
2022-10-30T20:33:12.554Z,64.17
2022-10-30T20:35:39.338Z,65.42
2022-10-30T20:38:06.732Z,64.82
2022-10-30T20:40:34.213Z,64.31
2022-10-30T20:43:02.989Z,63.53
2022-10-30T20:45:30.408Z,63.23
2022-10-30T20:47:58.851Z,63.95
2022-10-30T20:50:27.340Z,63.56
2022-10-30T20:52:54.834Z,63.39
2022-10-30T20:55:21.892Z,63.00
2022-10-30T20:57:48.762Z,62.28
2022-10-30T21:00:16.328Z,63.31
2022-10-30T21:02:43.285Z,63.56
2022-10-30T21:05:30.223Z,64.13
2022-10-30T21:07:58.888Z,63.10
2022-10-30T21:10:30.324Z,63.66
2022-10-30T21:12:59.818Z,63.76
2022-10-30T21:15:29.339Z,63.51
2022-10-30T21:17:56.361Z,63.67
2022-10-30T21:20:23.378Z,64.59
2022-10-30T21:22:50.489Z,63.21
2022-10-30T21:25:17.571Z,64.42
2022-10-30T21:30:16.303Z,63.77
2022-10-30T21:32:43.402Z,64.43
2022-10-30T21:35:10.121Z,64.26
2022-10-30T21:37:37.316Z,63.80
2022-10-30T21:40:05.002Z,63.53
2022-10-30T21:42:32.945Z,63.80
2022-10-30T21:45:00.180Z,63.56
2022-10-30T21:47:26.842Z,63.20
2022-10-30T21:49:53.515Z,63.74
2022-10-30T21:52:20.455Z,63.53
2022-10-30T21:54:47.107Z,64.40
2022-10-30T21:57:13.763Z,64.25
2022-10-30T21:59:40.650Z,63.72
2022-10-30T22:02:07.318Z,63.62
2022-10-30T22:04:34.778Z,63.38
2022-10-30T22:07:01.454Z,64.22
2022-10-30T22:09:29.165Z,64.66
2022-10-30T22:11:56.074Z,64.44
2022-10-30T22:14:24.619Z,63.66
2022-10-30T22:16:52.544Z,63.58
2022-10-30T22:19:19.526Z,63.45
2022-10-30T22:21:46.195Z,63.85
2022-10-30T22:24:13.785Z,63.66
2022-10-30T22:26:42.166Z,63.93
2022-10-30T22:29:08.868Z,64.18
2022-10-30T22:31:35.638Z,63.98
2022-10-30T22:34:02.604Z,65.63
2022-10-30T22:36:29.910Z,67.61
2022-10-30T22:39:07.418Z,65.55
2022-10-30T22:41:38.048Z,67.14
2022-10-30T22:44:08.102Z,66.38
2022-10-30T22:46:35.968Z,66.11
2022-10-30T22:49:02.697Z,66.06
2022-10-30T22:51:31.120Z,65.06
2022-10-30T22:54:01.115Z,64.19
2022-10-30T22:56:28.859Z,65.29
2022-10-30T22:58:56.160Z,64.96
2022-10-30T23:01:24.821Z,64.24
2022-10-30T23:03:52.390Z,65.35
2022-10-30T23:06:19.164Z,64.87
2022-10-30T23:08:46.296Z,64.72
2022-10-30T23:11:14.680Z,66.38
2022-10-30T23:13:41.436Z,66.30
2022-10-30T23:16:09.298Z,65.32
2022-10-30T23:18:35.952Z,64.31
2022-10-30T23:21:07.169Z,66.67
2022-10-30T23:23:34.794Z,65.78
2022-10-30T23:26:02.167Z,65.88
2022-10-30T23:28:28.823Z,65.34
2022-10-30T23:30:55.798Z,65.11
2022-10-30T23:33:22.444Z,64.46
2022-10-30T23:35:49.130Z,64.17
2022-10-30T23:38:16.047Z,64.65
2022-10-30T23:40:42.717Z,65.18
2022-10-30T23:43:09.450Z,65.22
2022-10-30T23:45:36.376Z,64.32
2022-10-30T23:48:03.153Z,65.59
2022-10-30T23:50:29.868Z,66.03
2022-10-30T23:52:56.767Z,66.02
2022-10-30T23:55:24.118Z,68.27
2022-10-30T23:57:50.947Z,67.36
